createdAt,value
2018-11-22T12:18:20.647Z,28.80
2018-11-22T12:20:51.115Z,28.70
2018-11-22T12:23:22.537Z,29.10
2018-11-22T12:25:52.049Z,29.10
2018-11-22T12:28:22.785Z,29.90
2018-11-22T12:30:53.627Z,29.60
2018-11-22T12:33:41.128Z,29.30
2018-11-22T12:36:15.674Z,28.80
2018-11-22T12:38:46.021Z,29.00
2018-11-22T12:41:16.262Z,28.90
2018-11-22T12:43:48.563Z,29.30
2018-11-22T12:46:18.804Z,29.60
2018-11-22T12:48:49.214Z,29.60
2018-11-22T12:51:18.958Z,29.40
2018-11-22T12:53:50.437Z,29.60
2018-11-22T12:56:19.982Z,29.70
2018-11-22T12:58:49.364Z,29.20
2018-11-22T13:01:18.766Z,29.30
2018-11-22T13:03:48.721Z,28.40
2018-11-22T13:06:18.187Z,28.50
2018-11-22T13:08:48.015Z,28.60
2018-11-22T13:11:17.539Z,26.70
2018-11-22T13:13:46.910Z,26.60
2018-11-22T13:16:16.196Z,27.30
2018-11-22T13:18:47.177Z,28.10
2018-11-22T13:21:17.805Z,27.80
2018-11-22T13:23:48.249Z,27.70
2018-11-22T13:26:18.226Z,28.10
2018-11-22T13:28:48.272Z,28.70
2018-11-22T13:31:19.443Z,29.00
2018-11-22T13:33:50.050Z,28.90
2018-11-22T13:36:19.416Z,29.10
2018-11-22T13:38:54.258Z,29.40
2018-11-22T13:41:24.368Z,30.00
2018-11-22T13:43:54.167Z,30.00
2018-11-22T13:46:24.583Z,30.50
2018-11-22T13:48:56.368Z,30.60
2018-11-22T13:51:25.876Z,30.50
2018-11-22T13:53:55.781Z,30.30
2018-11-22T13:56:25.856Z,29.60
2018-11-22T13:58:57.339Z,29.80
2018-11-22T14:01:26.821Z,29.40
2018-11-22T14:03:57.112Z,29.70
2018-11-22T14:06:27.692Z,29.60
2018-11-22T14:08:58.600Z,29.40
2018-11-22T14:11:29.986Z,29.10
2018-11-22T14:14:01.437Z,28.30
2018-11-22T14:16:31.962Z,28.80
2018-11-22T14:19:02.719Z,28.50
2018-11-22T14:21:32.240Z,29.40
2018-11-22T14:24:03.725Z,29.20
2018-11-22T14:26:34.759Z,29.30
2018-11-22T14:29:06.918Z,29.00
2018-11-22T14:31:36.927Z,29.80
2018-11-22T14:34:08.541Z,29.10
2018-11-22T14:36:38.755Z,29.40
2018-11-22T14:39:15.560Z,29.30
2018-11-22T14:41:45.500Z,29.50
2018-11-22T14:44:16.149Z,29.30
2018-11-22T14:46:47.484Z,29.20
2018-11-22T14:49:17.410Z,29.40
2018-11-22T14:51:49.416Z,30.00
2018-11-22T14:54:19.988Z,30.10
2018-11-22T14:56:51.135Z,30.00
2018-11-22T14:59:21.752Z,30.60
2018-11-22T15:01:52.020Z,30.00
2018-11-22T15:04:21.960Z,29.90
2018-11-22T15:06:52.579Z,30.20
2018-11-22T15:09:24.616Z,30.50
2018-11-22T15:11:56.455Z,30.40
2018-11-22T15:14:26.566Z,31.00
2018-11-22T15:16:56.560Z,30.80
2018-11-22T15:19:26.977Z,31.70
2018-11-22T15:21:57.355Z,31.70
2018-11-22T15:24:27.399Z,31.80
2018-11-22T15:26:57.379Z,32.70
2018-11-22T15:29:28.090Z,33.10
2018-11-22T15:31:59.680Z,33.30
2018-11-22T15:34:31.097Z,33.10
2018-11-22T15:37:02.976Z,33.30
2018-11-22T15:39:33.420Z,33.50
2018-11-22T15:42:04.154Z,33.90
2018-11-22T15:44:33.429Z,34.20
2018-11-22T15:47:04.150Z,34.40
2018-11-22T15:49:34.236Z,34.70
2018-11-22T15:52:03.863Z,34.40
2018-11-22T15:54:35.010Z,34.20
2018-11-22T15:57:04.457Z,34.80
2018-11-22T15:59:35.163Z,34.40
2018-11-22T16:02:05.726Z,34.60
2018-11-22T16:04:36.899Z,34.80
2018-11-22T16:07:07.733Z,34.60
2018-11-22T16:09:37.687Z,34.70
2018-11-22T16:12:07.848Z,34.20
2018-11-22T16:14:38.419Z,34.60
2018-11-22T16:17:08.615Z,35.10
2018-11-22T16:19:38.889Z,34.60
2018-11-22T16:22:09.717Z,34.20
2018-11-22T16:24:39.791Z,34.10
2018-11-22T16:27:09.287Z,35.70
2018-11-22T16:29:38.717Z,35.30
2018-11-22T16:32:08.204Z,36.00
2018-11-22T16:34:37.523Z,35.70
2018-11-22T16:37:07.492Z,35.70
2018-11-22T16:39:37.541Z,35.60
2018-11-22T16:42:08.362Z,35.20
2018-11-22T16:44:39.060Z,36.10
2018-11-22T16:47:09.038Z,35.40
2018-11-22T16:49:38.466Z,36.90
2018-11-22T16:52:08.371Z,35.10
2018-11-22T16:54:37.680Z,35.90
2018-11-22T16:57:07.929Z,35.90
2018-11-22T16:59:37.290Z,36.60
2018-11-22T17:02:07.197Z,35.40
2018-11-22T17:04:37.221Z,35.20
2018-11-22T17:07:07.753Z,34.40
2018-11-22T17:09:37.139Z,34.00
2018-11-22T17:12:07.262Z,35.00
2018-11-22T17:14:37.239Z,34.40
2018-11-22T17:17:07.301Z,35.90
2018-11-22T17:19:36.634Z,34.60
2018-11-22T17:22:07.193Z,35.10
2018-11-22T17:24:36.587Z,35.30
2018-11-22T17:27:08.251Z,34.80
2018-11-22T17:29:37.586Z,34.20
2018-11-22T17:32:07.716Z,34.70
2018-11-22T17:34:37.747Z,34.20
2018-11-22T17:37:07.231Z,35.10
2018-11-22T17:39:37.052Z,35.30
2018-11-22T17:42:07.291Z,33.90
2018-11-22T17:44:40.129Z,35.50
2018-11-22T17:47:11.556Z,35.60
2018-11-22T17:49:43.790Z,36.00
2018-11-22T17:52:14.216Z,36.20
2018-11-22T17:54:44.502Z,36.20
2018-11-22T17:57:14.879Z,36.90
2018-11-22T17:59:45.577Z,37.10
2018-11-22T18:02:16.492Z,37.30
2018-11-22T18:04:45.992Z,37.30
2018-11-22T18:07:16.651Z,37.10
2018-11-22T18:09:48.097Z,35.50
2018-11-22T18:12:18.693Z,35.20
2018-11-22T18:14:50.564Z,34.60
2018-11-22T18:17:20.986Z,36.10
2018-11-22T18:19:52.088Z,34.60
2018-11-22T18:22:22.579Z,35.60
2018-11-22T18:24:53.474Z,35.60
2018-11-22T18:27:25.447Z,34.70
2018-11-22T18:29:56.624Z,35.00
2018-11-22T18:32:27.848Z,34.80
2018-11-22T18:34:57.979Z,35.70
2018-11-22T18:37:31.206Z,35.60
2018-11-22T18:40:01.310Z,36.00
2018-11-22T18:42:31.281Z,36.60
2018-11-22T18:45:01.673Z,36.20
2018-11-22T18:47:32.831Z,36.30
2018-11-22T18:50:04.668Z,36.60
2018-11-22T18:52:35.305Z,35.90
2018-11-22T18:55:04.928Z,37.20
2018-11-22T18:57:35.529Z,36.70
2018-11-22T19:00:07.472Z,37.10
2018-11-22T19:02:36.825Z,37.30
2018-11-22T19:05:07.426Z,37.50
2018-11-22T19:07:36.979Z,37.60
2018-11-22T19:10:11.309Z,37.60
2018-11-22T19:12:41.069Z,36.50
2018-11-22T19:15:12.435Z,37.30
2018-11-22T19:17:44.187Z,37.80
2018-11-22T19:20:15.970Z,38.20
2018-11-22T19:22:46.307Z,39.90
2018-11-22T19:25:15.959Z,40.10
2018-11-22T19:27:46.221Z,40.40
2018-11-22T19:30:18.813Z,40.60
2018-11-22T19:32:50.487Z,41.30
2018-11-22T19:35:21.925Z,41.60
2018-11-22T19:37:52.592Z,41.70
2018-11-22T19:40:25.298Z,42.10
2018-11-22T19:42:56.274Z,42.60
2018-11-22T19:45:30.534Z,43.80
2018-11-22T19:48:01.003Z,44.00
2018-11-22T19:50:32.220Z,43.80
2018-11-22T19:53:04.139Z,44.00
2018-11-22T19:55:35.697Z,43.80
2018-11-22T19:58:07.779Z,43.70
2018-11-22T20:00:38.949Z,43.60
2018-11-22T20:03:08.846Z,43.70
2018-11-22T20:05:40.573Z,44.30
2018-11-22T20:08:12.863Z,44.70
2018-11-22T20:10:43.355Z,45.00
2018-11-22T20:13:12.686Z,44.90
2018-11-22T20:15:42.347Z,44.70
2018-11-22T20:18:13.720Z,44.60
2018-11-22T20:20:49.596Z,44.90
2018-11-22T20:23:21.592Z,44.30
2018-11-22T20:25:47.325Z,44.50
2018-11-22T20:28:18.262Z,43.90
2018-11-22T20:30:48.738Z,43.50
2018-11-22T20:33:19.149Z,43.60
2018-11-22T20:35:48.558Z,43.80
2018-11-22T20:38:19.711Z,44.70
2018-11-22T20:40:56.964Z,45.20
2018-11-22T20:43:22.193Z,46.00
2018-11-22T20:45:53.445Z,44.90
2018-11-22T20:48:24.601Z,45.60
2018-11-22T20:50:55.141Z,45.10
2018-11-22T20:53:25.264Z,44.70
2018-11-22T20:55:55.059Z,44.10
2018-11-22T20:58:25.638Z,43.20
2018-11-22T21:00:55.093Z,44.10
2018-11-22T21:03:26.247Z,44.60
2018-11-22T21:05:56.413Z,45.40
2018-11-22T21:08:26.562Z,45.40
2018-11-22T21:10:56.600Z,45.00
2018-11-22T21:13:26.625Z,45.00
2018-11-22T21:15:57.471Z,45.50
2018-11-22T21:18:28.404Z,45.00
2018-11-22T21:20:57.833Z,45.30
2018-11-22T21:23:28.577Z,45.40
2018-11-22T21:25:57.919Z,45.80
2018-11-22T21:28:28.987Z,44.60
2018-11-22T21:31:00.956Z,45.30
2018-11-22T21:33:30.256Z,45.80
2018-11-22T21:36:00.139Z,46.10
2018-11-22T21:38:30.337Z,46.00
2018-11-22T21:41:00.511Z,45.40
2018-11-22T21:43:29.991Z,45.00
2018-11-22T21:46:01.111Z,45.30
2018-11-22T21:48:31.093Z,44.90
2018-11-22T21:51:00.944Z,45.00
2018-11-22T21:53:32.991Z,45.00
2018-11-22T21:56:03.400Z,45.00
2018-11-22T21:58:33.587Z,45.60
2018-11-22T22:01:06.628Z,46.00
2018-11-22T22:03:36.928Z,46.40
2018-11-22T22:06:06.842Z,45.60
2018-11-22T22:08:39.853Z,45.30
2018-11-22T22:11:09.753Z,44.50
2018-11-22T22:13:39.113Z,43.80
2018-11-22T22:16:09.016Z,42.60
2018-11-22T22:18:39.022Z,43.20
2018-11-22T22:21:09.760Z,42.10
2018-11-22T22:23:40.109Z,42.70
2018-11-22T22:26:09.514Z,42.60
2018-11-22T22:28:39.812Z,43.10
2018-11-22T22:31:09.748Z,43.10
2018-11-22T22:33:39.055Z,42.30
2018-11-22T22:36:09.148Z,42.70
2018-11-22T22:38:39.169Z,43.50
2018-11-22T22:41:11.392Z,44.80
2018-11-22T22:46:25.227Z,43.80
2018-11-22T22:48:55.111Z,43.90
2018-11-22T22:51:24.449Z,43.60
2018-11-22T22:53:54.259Z,44.00
2018-11-22T22:56:24.486Z,43.60
2018-11-22T22:58:55.899Z,43.40
2018-11-22T23:01:25.851Z,43.80
2018-11-22T23:03:55.867Z,44.00
2018-11-22T23:06:25.336Z,43.90
2018-11-22T23:08:54.682Z,44.10
2018-11-22T23:11:27.370Z,44.70
2018-11-22T23:13:56.811Z,44.70
2018-11-22T23:16:26.762Z,45.80
2018-11-22T23:18:58.980Z,46.50
2018-11-22T23:21:28.419Z,45.80
2018-11-22T23:23:58.696Z,46.00
2018-11-22T23:26:28.794Z,46.10
2018-11-22T23:28:59.538Z,45.40
2018-11-22T23:31:30.152Z,45.30
2018-11-22T23:34:00.136Z,45.10
2018-11-22T23:36:30.289Z,44.60
2018-11-22T23:39:00.344Z,45.20
2018-11-22T23:41:31.892Z,44.30
2018-11-22T23:44:02.956Z,45.70
2018-11-22T23:46:32.335Z,45.80
2018-11-22T23:49:02.960Z,45.30
2018-11-22T23:51:34.520Z,44.20
2018-11-22T23:54:04.849Z,44.20
2018-11-22T23:56:35.480Z,43.10
2018-11-22T23:59:06.319Z,44.00
